createdAt,value
2023-01-10T00:00:40.708Z,16.33
2023-01-10T00:01:44.184Z,16.70
2023-01-10T00:02:53.119Z,17.27
2023-01-10T00:03:56.623Z,17.00
2023-01-10T00:05:00.194Z,16.30
2023-01-10T00:06:02.740Z,17.45
2023-01-10T00:07:06.193Z,16.35
2023-01-10T00:08:16.060Z,15.82
2023-01-10T00:09:19.510Z,16.75
2023-01-10T00:10:22.003Z,16.50
2023-01-10T00:11:43.038Z,16.25
2023-01-10T00:13:07.548Z,17.13
2023-01-10T00:14:19.081Z,16.80
2023-01-10T00:15:22.529Z,15.23
2023-01-10T00:16:25.171Z,15.68
2023-01-10T00:17:28.711Z,16.65
2023-01-10T00:18:31.302Z,16.48
2023-01-10T00:19:41.027Z,17.10
2023-01-10T00:20:51.304Z,16.23
2023-01-10T00:21:54.476Z,16.77
2023-01-10T00:22:58.235Z,16.58
2023-01-10T00:24:13.716Z,16.70
2023-01-10T00:25:26.010Z,17.50
2023-01-10T00:26:28.503Z,16.55
2023-01-10T00:27:31.985Z,15.82
2023-01-10T00:28:36.083Z,14.68
2023-01-10T00:29:40.483Z,17.20
2023-01-10T00:30:49.111Z,16.00
2023-01-10T00:31:52.588Z,15.05
2023-01-10T00:32:56.900Z,16.08
2023-01-10T00:33:59.403Z,15.90
2023-01-10T00:35:05.450Z,16.10
2023-01-10T00:36:15.097Z,15.75
2023-01-10T00:37:18.570Z,14.82
2023-01-10T00:38:21.103Z,14.68
2023-01-10T00:39:27.644Z,14.98
2023-01-10T00:40:30.157Z,15.18
2023-01-10T00:41:58.051Z,15.10
2023-01-10T00:43:19.466Z,14.98
2023-01-10T00:44:24.387Z,13.70
2023-01-10T00:45:27.624Z,13.52
2023-01-10T00:46:31.080Z,13.98
2023-01-10T00:47:40.068Z,14.38
2023-01-10T00:48:43.591Z,14.20
2023-01-10T00:49:46.218Z,13.45
2023-01-10T00:50:49.622Z,13.68
2023-01-10T00:51:59.032Z,14.98
2023-01-10T00:53:02.539Z,13.10
2023-01-10T00:54:13.006Z,13.70
2023-01-10T00:55:16.403Z,13.82
2023-01-10T00:56:18.942Z,14.38
2023-01-10T00:57:22.367Z,14.05
2023-01-10T00:58:32.035Z,14.38
2023-01-10T00:59:36.824Z,15.00
2023-01-10T01:00:39.425Z,14.20
2023-01-10T01:01:49.107Z,14.07
2023-01-10T01:02:51.820Z,13.27
2023-01-10T01:03:55.460Z,14.75
2023-01-10T01:05:00.358Z,13.65
2023-01-10T01:06:13.061Z,14.40
2023-01-10T01:07:15.549Z,14.13
2023-01-10T01:08:19.692Z,13.52
2023-01-10T01:09:22.296Z,13.50
2023-01-10T01:10:28.504Z,13.43
2023-01-10T01:11:38.067Z,12.38
2023-01-10T01:12:40.624Z,12.75
2023-01-10T01:13:44.169Z,13.00
2023-01-10T01:14:49.038Z,13.18
2023-01-10T01:15:52.477Z,13.55
2023-01-10T01:17:02.010Z,12.15
2023-01-10T01:18:06.135Z,11.50
2023-01-10T01:19:08.693Z,11.15
2023-01-10T01:20:20.162Z,10.77
2023-01-10T01:21:36.038Z,11.75
2023-01-10T01:22:46.010Z,10.75
2023-01-10T01:23:48.689Z,11.57
2023-01-10T01:24:52.177Z,12.52
2023-01-10T01:25:55.049Z,11.32
2023-01-10T01:26:58.471Z,10.85
2023-01-10T01:28:08.030Z,11.10
2023-01-10T01:29:11.532Z,10.88
2023-01-10T01:30:15.879Z,11.25
2023-01-10T01:31:19.719Z,10.77
2023-01-10T01:32:22.458Z,10.40
2023-01-10T01:33:33.085Z,10.48
2023-01-10T01:34:36.600Z,10.45
2023-01-10T01:35:39.149Z,10.25
2023-01-10T01:36:42.567Z,10.38
2023-01-10T01:37:45.878Z,10.40
2023-01-10T01:38:56.658Z,10.20
2023-01-10T01:39:59.229Z,9.70
2023-01-10T01:41:02.660Z,10.32
2023-01-10T01:42:05.633Z,9.73
2023-01-10T01:43:21.352Z,10.27
2023-01-10T01:44:31.043Z,9.65
2023-01-10T01:45:44.082Z,10.32
2023-01-10T01:46:48.732Z,10.20
2023-01-10T01:47:53.111Z,10.63
2023-01-10T01:48:56.524Z,10.50
2023-01-10T01:50:06.031Z,10.40
2023-01-10T01:51:11.024Z,10.38
2023-01-10T01:52:18.672Z,11.20
2023-01-10T01:53:24.281Z,11.15
2023-01-10T01:54:28.717Z,11.60
2023-01-10T01:55:39.034Z,11.45
2023-01-10T01:56:44.594Z,10.65
2023-01-10T01:57:47.933Z,11.95
2023-01-10T01:58:53.591Z,11.48
2023-01-10T01:59:56.898Z,11.60
2023-01-10T02:01:08.128Z,11.05
2023-01-10T02:02:13.902Z,11.02
2023-01-10T02:03:23.348Z,10.43
2023-01-10T02:04:29.246Z,10.40
2023-01-10T02:05:33.223Z,10.68
2023-01-10T02:06:43.067Z,10.50
2023-01-10T02:07:47.086Z,11.13
2023-01-10T02:08:52.907Z,10.43
2023-01-10T02:09:56.926Z,9.27
2023-01-10T02:11:05.986Z,10.60
2023-01-10T02:12:15.044Z,10.23
2023-01-10T02:13:20.105Z,10.30
2023-01-10T02:14:23.924Z,10.10
2023-01-10T02:15:27.505Z,10.10
2023-01-10T02:16:38.054Z,9.90
2023-01-10T02:17:48.055Z,9.93
2023-01-10T02:18:50.675Z,10.23
2023-01-10T02:19:55.811Z,9.75
2023-01-10T02:21:31.034Z,10.60
2023-01-10T02:22:59.099Z,9.57
2023-01-10T02:24:28.559Z,9.63
2023-01-10T02:25:44.388Z,10.30
2023-01-10T02:26:59.125Z,10.23
2023-01-10T02:28:29.070Z,10.07
2023-01-10T02:29:49.966Z,10.02
2023-01-10T02:31:14.078Z,9.75
2023-01-10T02:32:35.518Z,10.13
2023-01-10T02:33:56.108Z,10.90
2023-01-10T02:35:04.914Z,10.85
2023-01-10T02:36:16.879Z,10.10
2023-01-10T02:37:21.135Z,10.45
2023-01-10T02:38:29.940Z,11.32
2023-01-10T02:39:43.021Z,10.73
2023-01-10T02:40:56.326Z,11.23
2023-01-10T02:42:01.544Z,11.55
2023-01-10T02:43:07.124Z,10.27
2023-01-10T02:44:12.672Z,10.38
2023-01-10T02:45:25.071Z,10.07
2023-01-10T02:46:30.380Z,10.95
2023-01-10T02:47:37.902Z,11.25
2023-01-10T02:48:41.351Z,10.63
2023-01-10T02:49:44.267Z,11.02
2023-01-10T02:51:02.055Z,12.27
2023-01-10T02:52:05.672Z,11.20
2023-01-10T02:53:11.751Z,10.20
2023-01-10T02:54:18.722Z,11.13
2023-01-10T02:55:29.056Z,10.43
2023-01-10T02:56:47.293Z,10.43
2023-01-10T02:57:54.091Z,9.40
2023-01-10T02:59:08.303Z,10.48
2023-01-10T03:00:26.065Z,9.80
2023-01-10T03:01:35.447Z,9.38
2023-01-10T03:02:54.061Z,10.45
2023-01-10T03:04:03.475Z,9.98
2023-01-10T03:05:18.068Z,14.45
2023-01-10T03:06:25.181Z,9.52
2023-01-10T03:07:32.922Z,11.45
2023-01-10T03:08:38.779Z,10.30
2023-01-10T03:09:53.077Z,9.82
2023-01-10T03:10:58.515Z,9.90
2023-01-10T03:12:05.390Z,9.98
2023-01-10T03:13:17.057Z,12.75
2023-01-10T03:14:22.574Z,10.50
2023-01-10T03:15:28.408Z,11.40
2023-01-10T03:16:40.063Z,10.88
2023-01-10T03:17:50.058Z,12.32
2023-01-10T03:18:55.870Z,13.48
2023-01-10T03:20:01.481Z,12.85
2023-01-10T03:21:26.082Z,13.10
2023-01-10T03:22:38.059Z,12.43
2023-01-10T03:23:42.704Z,12.65
2023-01-10T03:24:54.068Z,13.18
2023-01-10T03:25:57.864Z,13.63
2023-01-10T03:27:10.060Z,13.63
2023-01-10T03:28:16.251Z,12.88
2023-01-10T03:29:27.041Z,14.18
2023-01-10T03:30:32.518Z,13.68
2023-01-10T03:31:39.003Z,14.57
2023-01-10T03:32:50.066Z,13.80
2023-01-10T03:34:02.124Z,14.25
2023-01-10T03:35:05.915Z,14.30
2023-01-10T03:36:16.858Z,15.40
2023-01-10T03:37:25.017Z,14.65
2023-01-10T03:38:32.741Z,15.55
2023-01-10T03:39:48.072Z,15.30
2023-01-10T03:40:56.155Z,14.32
2023-01-10T03:42:04.333Z,15.50
2023-01-10T03:43:29.473Z,15.52
2023-01-10T03:44:53.078Z,14.75
2023-01-10T03:45:58.362Z,14.80
2023-01-10T03:47:05.131Z,15.73
2023-01-10T03:48:09.454Z,14.10
2023-01-10T03:49:14.220Z,15.43
2023-01-10T03:50:27.077Z,15.07
2023-01-10T03:51:30.254Z,14.80
2023-01-10T03:52:41.070Z,15.05
2023-01-10T03:53:44.081Z,15.73
2023-01-10T03:54:48.727Z,14.98
2023-01-10T03:55:51.247Z,15.32
2023-01-10T03:57:02.860Z,15.73
2023-01-10T03:58:12.048Z,14.20
2023-01-10T03:59:15.509Z,15.50
2023-01-10T04:00:22.054Z,16.27
2023-01-10T04:01:24.652Z,15.50
2023-01-10T04:02:28.912Z,15.52
2023-01-10T04:03:38.119Z,15.43
2023-01-10T04:04:42.843Z,15.65
2023-01-10T04:05:53.053Z,16.02
2023-01-10T04:06:55.696Z,15.30
2023-01-10T04:07:59.339Z,15.38
2023-01-10T04:09:01.846Z,16.33
2023-01-10T04:10:05.559Z,14.88
2023-01-10T04:11:15.069Z,15.07
2023-01-10T04:12:18.706Z,15.40
2023-01-10T04:13:28.071Z,14.95
2023-01-10T04:14:32.791Z,17.75
2023-01-10T04:15:35.359Z,18.73
2023-01-10T04:16:38.797Z,17.98
2023-01-10T04:17:48.084Z,16.77
2023-01-10T04:18:51.556Z,18.27
2023-01-10T04:19:55.420Z,34.45
2023-01-10T04:21:05.242Z,20.50
2023-01-10T04:22:21.052Z,42.83
2023-01-10T04:23:31.108Z,49.28
2023-01-10T04:24:33.646Z,44.20
2023-01-10T04:25:37.092Z,42.08
2023-01-10T04:26:39.564Z,40.10
2023-01-10T04:27:43.039Z,33.20
2023-01-10T04:28:52.071Z,33.72
2023-01-10T04:29:55.531Z,30.23
2023-01-10T04:30:58.091Z,32.63
2023-01-10T04:32:01.903Z,28.42
2023-01-10T04:33:04.484Z,23.38
2023-01-10T04:34:14.066Z,20.95
2023-01-10T04:35:17.929Z,19.08
2023-01-10T04:36:21.409Z,18.23
2023-01-10T04:37:24.052Z,18.60
2023-01-10T04:38:34.054Z,17.83
2023-01-10T04:39:44.127Z,16.65
2023-01-10T04:40:53.164Z,15.95
2023-01-10T04:41:56.619Z,17.20
2023-01-10T04:42:59.112Z,18.05
2023-01-10T04:44:02.698Z,29.67
2023-01-10T04:45:12.097Z,32.53
2023-01-10T04:46:15.521Z,39.10
2023-01-10T04:47:19.153Z,38.88
2023-01-10T04:48:21.729Z,32.47
2023-01-10T04:49:32.115Z,35.97
2023-01-10T04:50:36.006Z,41.25
2023-01-10T04:51:39.628Z,25.48
2023-01-10T04:52:43.494Z,28.83
2023-01-10T04:53:46.928Z,35.67
2023-01-10T04:54:56.055Z,36.50
2023-01-10T04:56:04.144Z,33.05
2023-01-10T04:57:14.102Z,35.65
2023-01-10T04:58:16.640Z,34.83
2023-01-10T04:59:20.106Z,35.35
2023-01-10T05:00:29.132Z,26.42
2023-01-10T05:01:39.380Z,25.65
2023-01-10T05:02:44.552Z,27.92
2023-01-10T05:03:49.103Z,21.95
2023-01-10T05:04:51.657Z,24.23
2023-01-10T05:05:56.395Z,23.60
2023-01-10T05:07:05.093Z,26.58
2023-01-10T05:08:08.658Z,22.35
2023-01-10T05:09:11.303Z,23.42
2023-01-10T05:10:15.161Z,20.02
2023-01-10T05:11:17.677Z,22.77
2023-01-10T05:12:28.136Z,19.65
2023-01-10T05:13:30.731Z,20.27
2023-01-10T05:14:34.203Z,19.63
2023-01-10T05:15:36.703Z,19.60
2023-01-10T05:16:40.221Z,18.77
2023-01-10T05:17:49.121Z,18.75
2023-01-10T05:18:52.845Z,18.83
2023-01-10T05:19:55.335Z,18.98
2023-01-10T05:21:09.222Z,19.42
2023-01-10T05:22:19.357Z,19.42
2023-01-10T05:23:28.066Z,18.63
2023-01-10T05:24:31.488Z,17.92
2023-01-10T05:25:34.092Z,19.67
2023-01-10T05:26:37.565Z,18.08
2023-01-10T05:27:42.372Z,18.67
2023-01-10T05:28:53.098Z,17.88
2023-01-10T05:29:55.707Z,19.40
2023-01-10T05:30:59.271Z,20.00
2023-01-10T05:32:02.148Z,20.58
2023-01-10T05:33:12.068Z,19.75
2023-01-10T05:34:21.095Z,19.48
2023-01-10T05:35:24.640Z,19.85
2023-01-10T05:36:35.068Z,18.95
2023-01-10T05:37:45.075Z,19.55
2023-01-10T05:38:48.640Z,21.10
2023-01-10T05:39:51.141Z,20.75
2023-01-10T05:41:04.084Z,21.30
2023-01-10T05:42:07.561Z,23.42
2023-01-10T05:43:12.074Z,22.30
2023-01-10T05:44:15.519Z,21.05
2023-01-10T05:45:18.117Z,21.73
2023-01-10T05:46:28.087Z,21.00
2023-01-10T05:47:30.623Z,21.90
2023-01-10T05:48:41.091Z,22.13
2023-01-10T05:49:43.659Z,19.05
2023-01-10T05:50:47.225Z,21.00
2023-01-10T05:51:51.103Z,19.45
2023-01-10T05:53:01.152Z,20.98
2023-01-10T05:54:03.830Z,19.80
2023-01-10T05:55:07.542Z,21.00
2023-01-10T05:56:10.695Z,23.90
2023-01-10T05:57:14.252Z,23.77
2023-01-10T05:58:23.115Z,22.83
2023-01-10T05:59:28.467Z,22.52
2023-01-10T06:00:31.216Z,20.92
2023-01-10T06:01:34.701Z,21.92
2023-01-10T06:02:37.354Z,23.85
2023-01-10T06:03:47.128Z,23.92
2023-01-10T06:04:49.732Z,23.48
2023-01-10T06:05:53.134Z,21.75
2023-01-10T06:06:57.131Z,26.05
2023-01-10T06:08:00.595Z,29.15
2023-01-10T06:09:10.083Z,25.67
2023-01-10T06:10:13.562Z,27.70
2023-01-10T06:11:16.080Z,26.55
2023-01-10T06:12:19.805Z,29.83
2023-01-10T06:13:22.495Z,28.67
2023-01-10T06:14:32.085Z,26.92
2023-01-10T06:15:34.635Z,26.60
2023-01-10T06:16:38.122Z,27.92
2023-01-10T06:17:40.751Z,28.95
2023-01-10T06:18:51.118Z,28.00
2023-01-10T06:19:53.610Z,27.55
2023-01-10T06:21:03.117Z,27.33
2023-01-10T06:22:13.606Z,28.55
2023-01-10T06:23:30.083Z,28.02
2023-01-10T06:24:32.658Z,28.77
2023-01-10T06:25:47.095Z,31.80
2023-01-10T06:26:49.646Z,27.65
2023-01-10T06:27:53.188Z,29.95
2023-01-10T06:28:55.870Z,29.25
2023-01-10T06:30:01.435Z,34.85
2023-01-10T06:31:10.181Z,35.33
2023-01-10T06:32:13.743Z,34.47
2023-01-10T06:33:16.264Z,34.28
2023-01-10T06:34:19.690Z,29.95
2023-01-10T06:35:22.191Z,30.30
2023-01-10T06:36:32.115Z,28.80
2023-01-10T06:37:35.967Z,27.83
2023-01-10T06:38:39.555Z,27.10
2023-01-10T06:39:42.138Z,20.17
2023-01-10T06:40:46.191Z,22.52
2023-01-10T06:41:55.192Z,23.20
2023-01-10T06:42:59.254Z,22.45
2023-01-10T06:44:02.694Z,20.70
2023-01-10T06:45:05.577Z,21.08
2023-01-10T06:46:10.215Z,20.52
2023-01-10T06:47:20.104Z,20.13
2023-01-10T06:48:22.606Z,20.15
2023-01-10T06:49:28.272Z,19.67
2023-01-10T06:50:31.951Z,19.02
2023-01-10T06:51:35.496Z,18.02
2023-01-10T06:52:46.107Z,19.35
2023-01-10T06:53:49.748Z,17.92
2023-01-10T06:54:53.292Z,18.92
2023-01-10T06:55:57.504Z,19.17
2023-01-10T06:57:00.049Z,18.77
2023-01-10T06:58:11.169Z,18.08
2023-01-10T06:59:13.817Z,18.30
2023-01-10T07:00:17.538Z,18.63
2023-01-10T07:01:22.030Z,18.48
2023-01-10T07:02:24.756Z,19.23
2023-01-10T07:03:35.163Z,18.20
2023-01-10T07:04:38.741Z,19.17
2023-01-10T07:05:42.153Z,18.45
2023-01-10T07:06:45.675Z,17.27
2023-01-10T07:07:49.525Z,16.75
2023-01-10T07:08:59.132Z,17.48
2023-01-10T07:10:03.504Z,17.10
2023-01-10T07:11:06.341Z,18.60
2023-01-10T07:12:09.773Z,17.20
2023-01-10T07:13:13.280Z,17.38
2023-01-10T07:14:23.135Z,16.17
2023-01-10T07:15:26.883Z,17.08
2023-01-10T07:16:29.655Z,16.70
2023-01-10T07:17:33.122Z,16.73
2023-01-10T07:18:36.056Z,17.27
2023-01-10T07:19:46.164Z,21.73
2023-01-10T07:20:49.600Z,17.40
2023-01-10T07:22:01.271Z,22.10
2023-01-10T07:23:12.675Z,17.92
2023-01-10T07:24:15.293Z,21.20
2023-01-10T07:25:25.166Z,16.35
2023-01-10T07:26:29.973Z,16.88
2023-01-10T07:27:32.656Z,17.40
2023-01-10T07:28:36.276Z,20.65
2023-01-10T07:29:38.796Z,17.55
2023-01-10T07:30:49.120Z,16.67
2023-01-10T07:31:53.260Z,17.42
2023-01-10T07:32:56.106Z,16.95
2023-01-10T07:34:06.091Z,17.02
2023-01-10T07:35:09.866Z,17.92
2023-01-10T07:36:12.478Z,17.25
2023-01-10T07:37:15.963Z,17.77
2023-01-10T07:38:19.788Z,17.25
2023-01-10T07:39:30.097Z,15.95
2023-01-10T07:40:32.610Z,15.63
2023-01-10T07:41:43.204Z,17.30
2023-01-10T07:42:45.746Z,15.60
2023-01-10T07:43:56.140Z,16.98
2023-01-10T07:44:59.546Z,17.42
2023-01-10T07:46:04.588Z,23.10
2023-01-10T07:47:08.121Z,15.95
2023-01-10T07:48:10.631Z,17.48
2023-01-10T07:49:21.136Z,17.75
2023-01-10T07:50:23.943Z,16.77
2023-01-10T07:51:27.416Z,18.70
2023-01-10T07:52:30.883Z,19.33
2023-01-10T07:53:41.080Z,18.92
2023-01-10T07:54:44.493Z,19.15
2023-01-10T07:55:47.038Z,19.92
2023-01-10T07:56:50.584Z,18.10
2023-01-10T07:57:53.204Z,20.17
2023-01-10T07:59:03.101Z,21.70
2023-01-10T08:00:05.894Z,21.83
2023-01-10T08:01:16.210Z,19.27
2023-01-10T08:02:18.722Z,21.40
2023-01-10T08:03:24.923Z,19.55
2023-01-10T08:04:28.473Z,21.42
2023-01-10T08:05:31.093Z,21.23
2023-01-10T08:06:41.145Z,21.15
2023-01-10T08:07:50.162Z,20.60
2023-01-10T08:08:55.027Z,19.35
2023-01-10T08:09:57.529Z,20.08
2023-01-10T08:11:02.677Z,19.75
2023-01-10T08:12:05.331Z,20.60
2023-01-10T08:13:19.014Z,18.63
2023-01-10T08:14:22.770Z,19.85
2023-01-10T08:15:25.440Z,19.27
2023-01-10T08:16:28.904Z,19.17
2023-01-10T08:17:33.493Z,19.70
2023-01-10T08:18:45.139Z,22.48
2023-01-10T08:19:48.632Z,21.23
2023-01-10T08:20:51.884Z,22.05
2023-01-10T08:22:03.369Z,21.25
2023-01-10T08:23:13.321Z,21.67
2023-01-10T08:24:25.113Z,21.42
2023-01-10T08:25:27.999Z,21.52
2023-01-10T08:26:31.506Z,21.10
2023-01-10T08:27:34.001Z,20.52
2023-01-10T08:28:44.139Z,18.88
2023-01-10T08:29:47.599Z,20.27
2023-01-10T08:30:55.529Z,20.50
2023-01-10T08:31:59.263Z,22.83
2023-01-10T08:33:02.650Z,22.95
2023-01-10T08:34:13.233Z,22.77
2023-01-10T08:35:17.104Z,23.10
2023-01-10T08:36:22.188Z,26.85
2023-01-10T08:37:25.882Z,24.60
2023-01-10T08:38:30.093Z,29.45
2023-01-10T08:39:42.133Z,28.55
2023-01-10T08:40:52.132Z,29.02
2023-01-10T08:41:55.829Z,30.25
2023-01-10T08:43:00.664Z,30.42
2023-01-10T08:44:11.090Z,53.60
2023-01-10T08:45:15.088Z,53.58
2023-01-10T08:46:26.269Z,47.40
2023-01-10T08:47:30.377Z,49.25
2023-01-10T08:48:33.723Z,53.05
2023-01-10T08:49:36.163Z,41.63
2023-01-10T08:50:39.513Z,45.53
2023-01-10T08:51:49.170Z,54.28
2023-01-10T08:52:52.692Z,52.35
2023-01-10T08:53:56.066Z,49.15
2023-01-10T08:54:59.776Z,48.13
2023-01-10T08:56:05.558Z,45.72
2023-01-10T08:57:16.241Z,32.80
2023-01-10T08:58:19.932Z,27.15
2023-01-10T08:59:23.577Z,28.90
2023-01-10T09:00:26.276Z,28.85
2023-01-10T09:01:30.049Z,26.10
2023-01-10T09:02:40.248Z,26.48
2023-01-10T09:03:44.008Z,25.55
2023-01-10T09:04:47.374Z,25.13
2023-01-10T09:05:49.829Z,24.52
2023-01-10T09:07:00.097Z,24.05
2023-01-10T09:08:04.159Z,24.20
2023-01-10T09:09:06.598Z,25.08
2023-01-10T09:10:12.067Z,25.77
2023-01-10T09:11:15.532Z,24.35
2023-01-10T09:12:43.125Z,25.73
2023-01-10T09:13:46.525Z,27.50
2023-01-10T09:14:49.237Z,30.67
2023-01-10T09:15:53.237Z,34.35
2023-01-10T09:17:03.077Z,31.27
2023-01-10T09:18:13.126Z,32.15
2023-01-10T09:19:16.535Z,30.65
2023-01-10T09:20:19.052Z,26.83
2023-01-10T09:21:29.390Z,28.38
2023-01-10T09:22:45.109Z,27.33
2023-01-10T09:23:55.100Z,26.60
2023-01-10T09:24:58.808Z,25.20
2023-01-10T09:26:03.608Z,23.73
2023-01-10T09:27:07.194Z,25.33
2023-01-10T09:28:10.721Z,25.20
2023-01-10T09:29:21.127Z,26.33
2023-01-10T09:30:24.718Z,27.02
2023-01-10T09:31:28.091Z,27.70
2023-01-10T09:32:30.608Z,28.15
2023-01-10T09:33:45.880Z,27.30
2023-01-10T09:34:57.225Z,25.55
2023-01-10T09:36:00.633Z,25.73
2023-01-10T09:37:04.194Z,26.65
2023-01-10T09:38:07.859Z,25.80
2023-01-10T09:39:11.265Z,25.80
2023-01-10T09:40:23.160Z,26.58
2023-01-10T09:41:35.699Z,24.73
2023-01-10T09:42:45.560Z,25.30
2023-01-10T09:43:53.401Z,25.42
2023-01-10T09:45:02.005Z,24.08
2023-01-10T09:46:14.203Z,23.98
2023-01-10T09:47:22.937Z,21.80
2023-01-10T09:48:28.999Z,22.08
2023-01-10T09:49:40.549Z,21.20
2023-01-10T09:50:58.112Z,21.77
2023-01-10T09:52:08.659Z,19.73
2023-01-10T09:53:14.379Z,21.58
2023-01-10T09:54:19.852Z,20.25
2023-01-10T09:55:25.899Z,19.42
2023-01-10T09:56:38.183Z,20.00
2023-01-10T09:57:40.700Z,19.73
2023-01-10T09:58:44.615Z,20.45
2023-01-10T09:59:51.035Z,21.05
2023-01-10T10:00:57.623Z,19.25
2023-01-10T10:02:09.163Z,19.92
2023-01-10T10:03:19.361Z,18.65
2023-01-10T10:04:25.852Z,18.55
2023-01-10T10:05:29.829Z,19.85
2023-01-10T10:06:34.555Z,20.25
2023-01-10T10:07:44.130Z,19.45
2023-01-10T10:08:48.689Z,19.80
2023-01-10T10:09:52.120Z,21.25
2023-01-10T10:11:19.121Z,21.67
2023-01-10T10:12:35.143Z,20.08
2023-01-10T10:13:44.407Z,19.70
2023-01-10T10:14:54.721Z,20.10
2023-01-10T10:16:04.355Z,19.73
2023-01-10T10:17:19.114Z,20.80
2023-01-10T10:18:34.143Z,19.80
2023-01-10T10:19:44.891Z,20.13
2023-01-10T10:20:55.947Z,19.15
2023-01-10T10:22:10.173Z,20.10
2023-01-10T10:23:34.641Z,19.95
2023-01-10T10:24:45.637Z,18.67
2023-01-10T10:26:01.152Z,19.60
2023-01-10T10:27:09.384Z,18.95
2023-01-10T10:28:53.677Z,18.48
2023-01-10T10:30:06.252Z,22.17
2023-01-10T10:31:15.522Z,21.15
2023-01-10T10:32:25.875Z,20.17
2023-01-10T10:33:53.290Z,20.45
2023-01-10T10:34:59.711Z,18.05
2023-01-10T10:36:12.135Z,18.23
2023-01-10T10:37:18.467Z,18.25
2023-01-10T10:38:24.879Z,17.75
2023-01-10T10:39:33.361Z,18.33
2023-01-10T10:40:46.133Z,17.33
2023-01-10T10:41:52.637Z,18.15
2023-01-10T10:43:04.280Z,19.27
2023-01-10T10:44:21.939Z,20.20
2023-01-10T10:45:39.861Z,19.48
2023-01-10T10:46:44.892Z,19.38
2023-01-10T10:47:59.150Z,19.05
2023-01-10T10:49:06.118Z,19.70
2023-01-10T10:50:17.319Z,19.13
2023-01-10T10:51:23.446Z,19.23
2023-01-10T10:52:28.252Z,20.40
2023-01-10T10:53:39.181Z,21.40
2023-01-10T10:54:42.620Z,21.83
2023-01-10T10:55:48.722Z,21.45
2023-01-10T10:56:55.223Z,21.52
2023-01-10T10:58:01.099Z,20.98
2023-01-10T10:59:13.287Z,20.65
2023-01-10T11:00:19.525Z,20.85
2023-01-10T11:01:26.343Z,20.48
2023-01-10T11:02:31.326Z,21.80
2023-01-10T11:03:47.148Z,20.83
2023-01-10T11:04:58.210Z,21.30
2023-01-10T11:06:02.123Z,21.30
2023-01-10T11:07:05.468Z,21.10
2023-01-10T11:08:10.281Z,20.00
2023-01-10T11:09:15.105Z,21.70
2023-01-10T11:10:45.255Z,20.08
2023-01-10T11:11:52.354Z,19.90
2023-01-10T11:12:56.312Z,21.60
2023-01-10T11:14:00.902Z,21.33
2023-01-10T11:15:11.109Z,22.35
2023-01-10T11:16:26.327Z,22.48
2023-01-10T11:17:47.120Z,21.60
2023-01-10T11:18:55.503Z,23.15
2023-01-10T11:20:08.242Z,22.85
2023-01-10T11:21:14.456Z,22.45
2023-01-10T11:22:37.135Z,22.65
2023-01-10T11:23:43.327Z,21.65
2023-01-10T11:24:52.142Z,23.65
2023-01-10T11:25:55.991Z,23.70
2023-01-10T11:27:00.934Z,21.50
2023-01-10T11:28:13.297Z,22.80
2023-01-10T11:29:18.292Z,22.17
2023-01-10T11:30:30.134Z,22.77
2023-01-10T11:31:34.342Z,21.80
2023-01-10T11:32:40.427Z,21.63
2023-01-10T11:33:50.289Z,22.17
2023-01-10T11:34:55.807Z,21.63
2023-01-10T11:36:00.450Z,21.35
2023-01-10T11:37:05.190Z,22.23
2023-01-10T11:38:16.128Z,22.73
2023-01-10T11:39:18.644Z,21.92
2023-01-10T11:40:25.321Z,21.98
2023-01-10T11:41:34.127Z,21.92
2023-01-10T11:42:36.580Z,21.63
2023-01-10T11:43:47.125Z,21.55
2023-01-10T11:44:52.412Z,24.25
2023-01-10T11:45:56.875Z,22.38
2023-01-10T11:47:03.769Z,23.33
2023-01-10T11:48:11.446Z,23.00
2023-01-10T11:49:27.113Z,24.27
2023-01-10T11:50:31.936Z,22.30
2023-01-10T11:51:45.150Z,22.67
2023-01-10T11:52:49.850Z,22.27
2023-01-10T11:53:57.862Z,22.33
2023-01-10T11:55:01.985Z,21.85
2023-01-10T11:56:11.146Z,21.85
2023-01-10T11:57:17.970Z,22.15
2023-01-10T11:58:21.355Z,21.00
2023-01-10T11:59:24.459Z,21.63
2023-01-10T12:00:33.290Z,22.75
2023-01-10T12:01:47.131Z,21.73
2023-01-10T12:02:52.654Z,22.05
2023-01-10T12:03:56.543Z,20.80
2023-01-10T12:05:01.719Z,21.55
2023-01-10T12:06:13.171Z,22.00
2023-01-10T12:07:19.057Z,21.30
2023-01-10T12:08:29.583Z,21.10
2023-01-10T12:09:37.691Z,21.80
2023-01-10T12:10:41.179Z,22.00
2023-01-10T12:11:59.150Z,21.38
2023-01-10T12:13:09.484Z,18.85
2023-01-10T12:14:21.225Z,19.70
2023-01-10T12:15:26.181Z,18.83
2023-01-10T12:16:37.219Z,21.58
2023-01-10T12:17:47.162Z,20.67
2023-01-10T12:18:59.147Z,20.17
2023-01-10T12:20:03.423Z,21.10
2023-01-10T12:21:06.192Z,19.75
2023-01-10T12:22:17.135Z,20.05
2023-01-10T12:23:28.158Z,19.80
2023-01-10T12:24:34.713Z,19.83
2023-01-10T12:25:39.635Z,19.27
2023-01-10T12:26:50.252Z,19.42
2023-01-10T12:27:54.810Z,20.42
2023-01-10T12:28:59.994Z,20.02
2023-01-10T12:30:06.882Z,20.80
2023-01-10T12:31:19.176Z,20.40
2023-01-10T12:32:24.902Z,19.25
2023-01-10T12:33:30.166Z,19.25
2023-01-10T12:34:37.492Z,21.48
2023-01-10T12:35:49.284Z,19.92
2023-01-10T12:36:58.033Z,20.80
2023-01-10T12:38:03.562Z,21.80
2023-01-10T12:39:14.329Z,22.70
2023-01-10T12:40:19.641Z,20.65
2023-01-10T12:41:46.554Z,21.65
2023-01-10T12:43:12.091Z,21.20
2023-01-10T12:44:17.883Z,21.63
2023-01-10T12:45:26.851Z,20.65
2023-01-10T12:47:04.576Z,21.23
2023-01-10T12:48:08.310Z,20.75
2023-01-10T12:49:15.005Z,20.92
2023-01-10T12:50:22.209Z,21.83
2023-01-10T12:51:26.010Z,21.90
2023-01-10T12:52:52.116Z,22.55
2023-01-10T12:53:57.117Z,22.20
2023-01-10T12:55:00.141Z,21.00
2023-01-10T12:56:07.935Z,21.50
2023-01-10T12:57:18.208Z,21.20
2023-01-10T12:58:29.162Z,20.15
2023-01-10T12:59:38.159Z,21.35
2023-01-10T13:00:48.723Z,20.85
2023-01-10T13:01:56.795Z,21.02
2023-01-10T13:03:08.351Z,22.00
2023-01-10T13:04:14.281Z,22.52
2023-01-10T13:05:20.817Z,25.75
2023-01-10T13:06:27.053Z,27.50
2023-01-10T13:07:33.504Z,26.45
2023-01-10T13:08:44.213Z,22.15
2023-01-10T13:09:46.877Z,20.92
2023-01-10T13:10:51.751Z,23.40
2023-01-10T13:11:58.974Z,22.05
2023-01-10T13:13:04.833Z,21.50
2023-01-10T13:14:19.170Z,23.30
2023-01-10T13:15:24.678Z,21.50
2023-01-10T13:16:35.422Z,26.23
2023-01-10T13:17:47.211Z,26.67
2023-01-10T13:19:04.211Z,24.40
2023-01-10T13:20:27.714Z,23.90
2023-01-10T13:21:31.393Z,27.30
2023-01-10T13:22:55.195Z,29.23
2023-01-10T13:24:00.410Z,27.00
2023-01-10T13:25:10.160Z,28.73
2023-01-10T13:26:14.382Z,26.58
2023-01-10T13:27:20.957Z,25.60
2023-01-10T13:28:25.979Z,26.13
2023-01-10T13:29:32.144Z,28.67
2023-01-10T13:30:44.202Z,31.48
2023-01-10T13:31:49.776Z,27.02
2023-01-10T13:33:01.379Z,27.90
2023-01-10T13:34:07.605Z,28.85
2023-01-10T13:35:12.067Z,28.10
2023-01-10T13:36:27.202Z,24.30
2023-01-10T13:37:36.072Z,22.95
2023-01-10T13:38:41.223Z,24.23
2023-01-10T13:39:46.155Z,23.52
2023-01-10T13:41:00.202Z,23.38
2023-01-10T13:42:46.182Z,27.20
2023-01-10T13:44:02.310Z,24.42
2023-01-10T13:45:16.775Z,24.45
2023-01-10T13:46:38.944Z,23.45
2023-01-10T13:48:07.181Z,25.02
2023-01-10T13:49:29.249Z,24.13
2023-01-10T13:50:51.111Z,28.05
2023-01-10T13:52:13.012Z,29.50
2023-01-10T13:53:38.191Z,32.45
2023-01-10T13:54:57.136Z,28.20
2023-01-10T13:56:00.955Z,23.65
2023-01-10T13:57:24.307Z,23.70
2023-01-10T13:59:10.188Z,22.88
2023-01-10T14:00:40.596Z,23.95
2023-01-10T14:02:03.561Z,24.75
2023-01-10T14:03:07.372Z,23.85
2023-01-10T14:04:26.279Z,24.70
2023-01-10T14:05:30.198Z,24.83
2023-01-10T14:06:40.967Z,23.90
2023-01-10T14:07:46.359Z,23.90
2023-01-10T14:08:50.814Z,24.77
2023-01-10T14:10:09.243Z,24.25
2023-01-10T14:11:13.701Z,25.65
2023-01-10T14:12:22.592Z,23.17
2023-01-10T14:13:26.105Z,25.88
2023-01-10T14:14:29.730Z,25.25
2023-01-10T14:15:45.193Z,30.58
2023-01-10T14:16:50.266Z,33.65
2023-01-10T14:17:57.852Z,33.70
2023-01-10T14:19:00.580Z,40.50
2023-01-10T14:20:07.587Z,31.02
2023-01-10T14:21:17.194Z,27.75
2023-01-10T14:22:40.191Z,28.15
2023-01-10T14:23:52.191Z,26.15
2023-01-10T14:24:55.311Z,26.08
2023-01-10T14:25:59.459Z,26.20
2023-01-10T14:27:10.197Z,28.40
2023-01-10T14:28:19.951Z,28.85
2023-01-10T14:29:22.791Z,27.95
2023-01-10T14:30:29.323Z,30.25
2023-01-10T14:31:33.136Z,31.23
2023-01-10T14:32:45.191Z,29.85
2023-01-10T14:33:49.296Z,28.67